sensor_id;sensor_type;location;lat;lon;timestamp;pressure;altitude;pressure_sealevel;temperature;humidity
29163;BME280;20331;53.144;8.208;2023-02-21T00:06:37;101685.69;;;10.47;95.42
29163;BME280;20331;53.144;8.208;2023-02-21T00:17:18;101695.06;;;10.54;94.56
29163;BME280;20331;53.144;8.208;2023-02-21T00:27:59;101698.31;;;10.66;93.42
29163;BME280;20331;53.144;8.208;2023-02-21T00:38:39;101699.88;;;10.76;92.05
29163;BME280;20331;53.144;8.208;2023-02-21T00:49:19;101697.19;;;10.81;92.30
29163;BME280;20331;53.144;8.208;2023-02-21T00:59:59;101697.34;;;10.72;93.14
29163;BME280;20331;53.144;8.208;2023-02-21T01:10:39;101712.97;;;10.66;93.70
29163;BME280;20331;53.144;8.208;2023-02-21T01:21:19;101710.53;;;10.58;94.07
29163;BME280;20331;53.144;8.208;2023-02-21T01:31:59;101713.19;;;10.54;94.57
29163;BME280;20331;53.144;8.208;2023-02-21T01:42:39;101725.31;;;10.50;95.72
29163;BME280;20331;53.144;8.208;2023-02-21T01:53:23;101726.22;;;10.49;95.79
29163;BME280;20331;53.144;8.208;2023-02-21T02:04:04;101714.13;;;10.48;95.87
29163;BME280;20331;53.144;8.208;2023-02-21T02:14:47;101712.56;;;10.38;97.05
29163;BME280;20331;53.144;8.208;2023-02-21T02:35:33;101717.78;;;10.35;96.92
29163;BME280;20331;53.144;8.208;2023-02-21T02:46:13;101726.38;;;10.37;97.31
29163;BME280;20331;53.144;8.208;2023-02-21T02:56:38;101735.03;;;10.33;97.79
29163;BME280;20331;53.144;8.208;2023-02-21T03:17:41;101742.03;;;10.28;99.50
29163;BME280;20331;53.144;8.208;2023-02-21T03:28:03;101753.31;;;10.23;99.81
29163;BME280;20331;53.144;8.208;2023-02-21T03:38:29;101743.88;;;10.19;100.00
29163;BME280;20331;53.144;8.208;2023-02-21T03:48:50;101751.63;;;10.22;100.00
29163;BME280;20331;53.144;8.208;2023-02-21T03:59:12;101756.78;;;10.22;99.92
29163;BME280;20331;53.144;8.208;2023-02-21T04:09:33;101758.47;;;10.24;100.00
29163;BME280;20331;53.144;8.208;2023-02-21T04:19:55;101755.00;;;10.25;99.61
29163;BME280;20331;53.144;8.208;2023-02-21T04:30:16;101759.34;;;10.23;99.79
29163;BME280;20331;53.144;8.208;2023-02-21T04:40:37;101751.59;;;10.23;99.69
29163;BME280;20331;53.144;8.208;2023-02-21T04:50:59;101752.38;;;10.28;98.69
29163;BME280;20331;53.144;8.208;2023-02-21T05:01:34;101735.16;;;10.27;98.77
29163;BME280;20331;53.144;8.208;2023-02-21T05:11:56;101740.34;;;10.24;99.93
29163;BME280;20331;53.144;8.208;2023-02-21T05:22:17;101737.81;;;10.21;99.99
29163;BME280;20331;53.144;8.208;2023-02-21T05:32:40;101739.59;;;10.18;100.00
29163;BME280;20331;53.144;8.208;2023-02-21T05:43:02;101744.75;;;10.18;100.00
29163;BME280;20331;53.144;8.208;2023-02-21T05:53:23;101750.00;;;10.13;100.00
29163;BME280;20331;53.144;8.208;2023-02-21T06:03:45;101752.56;;;10.16;99.97
29163;BME280;20331;53.144;8.208;2023-02-21T06:14:07;101754.25;;;10.17;99.55
29163;BME280;20331;53.144;8.208;2023-02-21T06:24:29;101736.09;;;10.22;98.86
29163;BME280;20331;53.144;8.208;2023-02-21T06:34:50;101754.19;;;10.23;98.80
29163;BME280;20331;53.144;8.208;2023-02-21T06:45:12;101763.72;;;10.20;98.69
29163;BME280;20331;53.144;8.208;2023-02-21T06:55:33;101763.69;;;10.21;98.87
29163;BME280;20331;53.144;8.208;2023-02-21T07:05:56;101780.91;;;10.22;98.21
29163;BME280;20331;53.144;8.208;2023-02-21T07:16:18;101779.06;;;10.32;96.89
29163;BME280;20331;53.144;8.208;2023-02-21T07:26:40;101791.97;;;10.33;97.32
29163;BME280;20331;53.144;8.208;2023-02-21T07:37:02;101797.97;;;10.35;96.59
29163;BME280;20331;53.144;8.208;2023-02-21T07:47:24;101799.69;;;10.36;96.56
29163;BME280;20331;53.144;8.208;2023-02-21T07:57:45;101816.91;;;10.37;96.98
29163;BME280;20331;53.144;8.208;2023-02-21T08:08:07;101829.00;;;10.37;96.99
29163;BME280;20331;53.144;8.208;2023-02-21T08:18:29;101845.31;;;10.40;96.59
29163;BME280;20331;53.144;8.208;2023-02-21T08:28:50;101862.56;;;10.43;96.94
29163;BME280;20331;53.144;8.208;2023-02-21T08:39:12;101851.25;;;10.50;95.61
29163;BME280;20331;53.144;8.208;2023-02-21T08:49:35;101856.41;;;10.50;95.87
29163;BME280;20331;53.144;8.208;2023-02-21T09:00:00;101854.66;;;10.52;95.53
29163;BME280;20331;53.144;8.208;2023-02-21T09:10:25;101858.06;;;10.58;95.77
29163;BME280;20331;53.144;8.208;2023-02-21T09:20:46;101871.72;;;10.66;95.14
29163;BME280;20331;53.144;8.208;2023-02-21T09:31:11;101856.16;;;10.69;95.14
29163;BME280;20331;53.144;8.208;2023-02-21T09:41:34;101859.47;;;10.80;94.65
29163;BME280;20331;53.144;8.208;2023-02-21T09:51:56;101866.34;;;10.81;94.39
29163;BME280;20331;53.144;8.208;2023-02-21T10:02:25;101864.50;;;10.88;93.89
29163;BME280;20331;53.144;8.208;2023-02-21T10:23:21;101871.31;;;10.93;94.27
29163;BME280;20331;53.144;8.208;2023-02-21T10:33:44;101888.50;;;11.00;93.46
29163;BME280;20331;53.144;8.208;2023-02-21T10:44:11;101880.69;;;11.03;93.36
29163;BME280;20331;53.144;8.208;2023-02-21T10:54:33;101890.84;;;11.15;92.84
29163;BME280;20331;53.144;8.208;2023-02-21T11:04:55;101898.47;;;11.25;92.47
29163;BME280;20331;53.144;8.208;2023-02-21T11:15:28;101889.84;;;11.26;92.04
29163;BME280;20331;53.144;8.208;2023-02-21T11:25:50;101897.63;;;11.26;91.99
29163;BME280;20331;53.144;8.208;2023-02-21T11:36:14;101895.75;;;11.34;91.42
29163;BME280;20331;53.144;8.208;2023-02-21T11:46:46;101888.78;;;11.39;91.45
29163;BME280;20331;53.144;8.208;2023-02-21T12:28:53;101869.13;;;11.76;90.03
29163;BME280;20331;53.144;8.208;2023-02-21T12:39:21;101862.19;;;11.78;89.28
29163;BME280;20331;53.144;8.208;2023-02-21T12:49:53;101855.13;;;11.86;89.84
29163;BME280;20331;53.144;8.208;2023-02-21T13:31:49;101837.94;;;11.80;90.06
29163;BME280;20331;53.144;8.208;2023-02-21T13:42:18;101831.84;;;11.81;90.11
29163;BME280;20331;53.144;8.208;2023-02-21T13:52:50;101822.28;;;11.85;89.81
29163;BME280;20331;53.144;8.208;2023-02-21T14:13:45;101808.16;;;12.01;89.12
29163;BME280;20331;53.144;8.208;2023-02-21T14:34:34;101817.03;;;11.88;89.30
29163;BME280;20331;53.144;8.208;2023-02-21T15:06:19;101794.38;;;11.97;89.50
29163;BME280;20331;53.144;8.208;2023-02-21T15:16:43;101793.53;;;11.97;89.48
29163;BME280;20331;53.144;8.208;2023-02-21T15:27:09;101800.41;;;11.98;89.21
29163;BME280;20331;53.144;8.208;2023-02-21T15:37:31;101810.81;;;11.96;89.47
29163;BME280;20331;53.144;8.208;2023-02-21T15:47:53;101799.66;;;11.93;89.79
29163;BME280;20331;53.144;8.208;2023-02-21T15:58:17;101810.25;;;11.82;90.24
29163;BME280;20331;53.144;8.208;2023-02-21T16:08:39;101816.47;;;11.72;90.04
29163;BME280;20331;53.144;8.208;2023-02-21T16:19:10;101815.66;;;11.69;90.14
29163;BME280;20331;53.144;8.208;2023-02-21T16:29:31;101814.84;;;11.67;90.41
29163;BME280;20331;53.144;8.208;2023-02-21T16:39:53;101820.25;;;11.55;90.64
29163;BME280;20331;53.144;8.208;2023-02-21T16:50:15;101829.94;;;11.44;90.81
29163;BME280;20331;53.144;8.208;2023-02-21T17:00:38;101836.94;;;11.39;91.58
29163;BME280;20331;53.144;8.208;2023-02-21T17:11:00;101846.47;;;11.37;91.91
29163;BME280;20331;53.144;8.208;2023-02-21T17:21:21;101837.03;;;11.33;91.69
29163;BME280;20331;53.144;8.208;2023-02-21T17:31:42;101850.03;;;11.31;92.15
29163;BME280;20331;53.144;8.208;2023-02-21T17:42:04;101861.38;;;11.23;92.37
29163;BME280;20331;53.144;8.208;2023-02-21T17:52:26;101863.09;;;11.24;92.32
29163;BME280;20331;53.144;8.208;2023-02-21T18:02:47;101856.31;;;11.17;91.52
29163;BME280;20331;53.144;8.208;2023-02-21T18:13:09;101863.19;;;11.18;92.31
29163;BME280;20331;53.144;8.208;2023-02-21T18:23:31;101866.63;;;11.20;92.67
29163;BME280;20331;53.144;8.208;2023-02-21T18:33:52;101873.69;;;11.08;92.57
29163;BME280;20331;53.144;8.208;2023-02-21T18:44:14;101874.53;;;11.10;93.04
29163;BME280;20331;53.144;8.208;2023-02-21T18:54:35;101872.00;;;11.07;92.62
29163;BME280;20331;53.144;8.208;2023-02-21T19:04:56;101875.50;;;11.03;92.77
29163;BME280;20331;53.144;8.208;2023-02-21T19:15:18;101875.56;;;11.00;93.26
29163;BME280;20331;53.144;8.208;2023-02-21T19:25:40;101875.50;;;11.03;93.04
29163;BME280;20331;53.144;8.208;2023-02-21T19:36:06;101872.09;;;11.01;92.86
29163;BME280;20331;53.144;8.208;2023-02-21T19:46:28;101866.25;;;10.87;93.64
29163;BME280;20331;53.144;8.208;2023-02-21T19:56:50;101878.47;;;10.78;94.20
29163;BME280;20331;53.144;8.208;2023-02-21T20:07:11;101874.19;;;10.75;94.66
29163;BME280;20331;53.144;8.208;2023-02-21T20:17:36;101878.53;;;10.73;95.07
29163;BME280;20331;53.144;8.208;2023-02-21T20:27:57;101876.84;;;10.71;94.67
29163;BME280;20331;53.144;8.208;2023-02-21T20:38:19;101869.94;;;10.70;95.24
29163;BME280;20331;53.144;8.208;2023-02-21T20:48:41;101858.66;;;10.75;95.13
29163;BME280;20331;53.144;8.208;2023-02-21T20:59:03;101863.88;;;10.72;94.88
29163;BME280;20331;53.144;8.208;2023-02-21T21:09:25;101863.09;;;10.66;95.37
29163;BME280;20331;53.144;8.208;2023-02-21T21:19:54;101859.69;;;10.62;95.90
29163;BME280;20331;53.144;8.208;2023-02-21T21:30:17;101844.97;;;10.66;95.67
29163;BME280;20331;53.144;8.208;2023-02-21T21:40:42;101833.81;;;10.64;95.31
29163;BME280;20331;53.144;8.208;2023-02-21T21:51:08;101838.25;;;10.54;95.33
29163;BME280;20331;53.144;8.208;2023-02-21T22:01:29;101831.41;;;10.50;96.41
29163;BME280;20331;53.144;8.208;2023-02-21T22:11:51;101837.41;;;10.54;95.90
29163;BME280;20331;53.144;8.208;2023-02-21T22:22:13;101830.56;;;10.48;95.94
29163;BME280;20331;53.144;8.208;2023-02-21T22:32:36;101808.13;;;10.50;96.01
29163;BME280;20331;53.144;8.208;2023-02-21T22:42:58;101813.31;;;10.49;95.78
29163;BME280;20331;53.144;8.208;2023-02-21T22:53:20;101804.66;;;10.50;96.04
29163;BME280;20331;53.144;8.208;2023-02-21T23:03:41;101807.28;;;10.48;96.50
29163;BME280;20331;53.144;8.208;2023-02-21T23:14:03;101795.22;;;10.47;96.36
29163;BME280;20331;53.144;8.208;2023-02-21T23:24:24;101795.31;;;10.41;96.06
29163;BME280;20331;53.144;8.208;2023-02-21T23:34:46;101777.97;;;10.46;95.87
29163;BME280;20331;53.144;8.208;2023-02-21T23:45:11;101777.13;;;10.46;96.15
29163;BME280;20331;53.144;8.208;2023-02-21T23:55:33;101767.72;;;10.40;96.25
